createdAt,value
2018-12-16T00:00:03.238Z,86.70
2018-12-16T00:02:38.931Z,85.90
2018-12-16T00:05:09.445Z,85.40
2018-12-16T00:07:40.512Z,85.30
2018-12-16T00:10:10.506Z,85.40
2018-12-16T00:12:43.101Z,85.30
2018-12-16T00:15:14.505Z,85.10
2018-12-16T00:17:46.802Z,85.40
2018-12-16T00:20:19.661Z,85.60
2018-12-16T00:22:50.060Z,85.50
2018-12-16T00:25:20.717Z,85.30
2018-12-16T00:27:51.024Z,85.40
2018-12-16T00:30:22.283Z,85.60
2018-12-16T00:32:52.869Z,85.60
2018-12-16T00:35:23.491Z,85.60
2018-12-16T00:37:55.759Z,85.00
2018-12-16T00:40:25.577Z,85.30
2018-12-16T00:42:58.294Z,85.50
2018-12-16T00:45:32.669Z,85.20
2018-12-16T00:50:49.102Z,85.30
2018-12-16T00:53:20.220Z,84.80
2018-12-16T00:55:52.692Z,84.70
2018-12-16T00:58:24.165Z,85.10
2018-12-16T01:00:55.666Z,84.50
2018-12-16T01:03:26.100Z,84.60
2018-12-16T01:05:57.224Z,84.50
2018-12-16T01:08:29.482Z,84.40
2018-12-16T01:10:59.872Z,84.20
2018-12-16T01:13:29.762Z,84.40
2018-12-16T01:16:02.218Z,84.80
2018-12-16T01:21:26.838Z,84.70
2018-12-16T01:23:59.344Z,84.80
2018-12-16T01:26:28.931Z,85.10
2018-12-16T01:29:00.238Z,84.90
2018-12-16T01:31:35.853Z,84.20
2018-12-16T01:34:08.450Z,84.30
2018-12-16T01:36:44.375Z,84.00
2018-12-16T01:39:15.891Z,83.30
2018-12-16T01:41:48.137Z,83.10
2018-12-16T01:44:19.686Z,83.60
2018-12-16T01:46:50.638Z,83.70
2018-12-16T01:49:20.315Z,83.30
2018-12-16T01:51:49.379Z,83.30
2018-12-16T01:54:18.041Z,82.70
2018-12-16T01:56:48.251Z,82.80
2018-12-16T01:59:18.299Z,83.00
2018-12-16T02:01:53.904Z,82.80
2018-12-16T02:04:24.871Z,82.60
2018-12-16T02:06:55.066Z,82.10
2018-12-16T02:09:27.128Z,82.10
2018-12-16T02:11:56.798Z,82.50
2018-12-16T02:14:25.673Z,82.60
2018-12-16T02:16:54.763Z,83.10
2018-12-16T02:19:23.143Z,82.60
2018-12-16T02:21:52.022Z,82.40
2018-12-16T02:24:24.796Z,81.80
2018-12-16T02:26:55.192Z,82.30
2018-12-16T02:29:25.945Z,82.40
2018-12-16T02:31:58.066Z,82.10
2018-12-16T02:34:30.590Z,82.60
2018-12-16T02:37:00.829Z,82.60
2018-12-16T02:39:29.797Z,83.20
2018-12-16T02:41:58.663Z,84.10
2018-12-16T02:44:29.286Z,83.90
2018-12-16T02:46:59.359Z,83.60
2018-12-16T02:49:29.681Z,83.90
2018-12-16T02:51:59.034Z,83.40
2018-12-16T02:54:30.925Z,83.20
2018-12-16T02:57:02.967Z,82.90
2018-12-16T02:59:32.980Z,82.90
2018-12-16T03:02:03.498Z,82.80
2018-12-16T03:04:33.770Z,82.30
2018-12-16T03:07:03.190Z,82.00
2018-12-16T03:09:33.269Z,82.20
2018-12-16T03:12:03.545Z,82.30
2018-12-16T03:14:34.580Z,82.20
2018-12-16T03:17:04.691Z,82.20
2018-12-16T03:19:33.875Z,82.70
2018-12-16T03:22:02.821Z,82.60
2018-12-16T03:24:31.864Z,83.30
2018-12-16T03:27:01.231Z,83.30
2018-12-16T03:29:29.648Z,83.40
2018-12-16T03:31:59.713Z,83.00
2018-12-16T03:34:30.068Z,83.00
2018-12-16T03:36:59.599Z,83.10
2018-12-16T03:39:29.298Z,83.50
2018-12-16T03:42:04.124Z,83.80
2018-12-16T03:44:34.056Z,83.90
2018-12-16T03:47:02.431Z,83.50
2018-12-16T03:49:30.837Z,83.30
2018-12-16T03:51:59.849Z,83.40
2018-12-16T03:54:29.370Z,83.40
2018-12-16T03:56:57.775Z,82.60
2018-12-16T03:59:27.610Z,82.40
2018-12-16T04:01:58.233Z,82.70
2018-12-16T04:04:29.231Z,82.50
2018-12-16T04:06:59.189Z,83.00
2018-12-16T04:09:29.503Z,83.10
2018-12-16T04:11:59.024Z,83.60
2018-12-16T04:14:28.905Z,83.40
2018-12-16T04:16:58.199Z,83.00
2018-12-16T04:19:27.199Z,83.10
2018-12-16T04:21:55.617Z,82.80
2018-12-16T04:24:24.411Z,83.30
2018-12-16T04:26:53.620Z,83.10
2018-12-16T04:29:22.617Z,82.70
2018-12-16T04:31:52.194Z,82.10
2018-12-16T04:34:22.375Z,82.20
2018-12-16T04:36:50.765Z,82.20
2018-12-16T04:39:19.403Z,82.10
2018-12-16T04:41:48.375Z,83.20
2018-12-16T04:44:17.579Z,82.80
2018-12-16T04:46:46.791Z,83.10
2018-12-16T04:49:16.159Z,83.30
2018-12-16T04:51:45.029Z,83.20
2018-12-16T04:54:15.757Z,82.50
2018-12-16T04:56:44.933Z,82.90
2018-12-16T04:59:13.463Z,83.10
2018-12-16T05:01:42.379Z,82.50
2018-12-16T05:04:13.107Z,82.90
2018-12-16T05:06:42.350Z,82.70
2018-12-16T05:09:11.361Z,82.80
2018-12-16T05:11:41.090Z,82.20
2018-12-16T05:14:11.615Z,82.60
2018-12-16T05:16:42.201Z,82.70
2018-12-16T05:19:10.866Z,82.80
2018-12-16T05:21:39.472Z,83.00
2018-12-16T05:24:08.552Z,83.00
2018-12-16T05:26:37.363Z,82.90
2018-12-16T05:29:06.939Z,82.90
2018-12-16T05:31:36.697Z,83.30
2018-12-16T05:34:05.075Z,83.40
2018-12-16T05:36:35.587Z,82.70
2018-12-16T05:39:06.759Z,83.20
2018-12-16T05:41:35.162Z,83.50
2018-12-16T05:44:03.824Z,84.20
2018-12-16T05:46:33.196Z,86.00
2018-12-16T05:49:01.614Z,87.80
2018-12-16T05:51:30.810Z,89.00
2018-12-16T05:54:00.098Z,89.90
2018-12-16T05:56:29.170Z,90.70
2018-12-16T05:58:58.325Z,91.90
2018-12-16T06:01:26.719Z,92.70
2018-12-16T06:03:57.607Z,93.60
2018-12-16T06:06:27.755Z,94.60
2018-12-16T06:08:56.193Z,95.80
2018-12-16T06:11:26.244Z,97.10
2018-12-16T06:13:54.649Z,97.50
2018-12-16T06:16:23.079Z,97.60
2018-12-16T06:18:52.837Z,97.70
2018-12-16T06:21:22.337Z,98.60
2018-12-16T06:23:55.492Z,98.60
2018-12-16T06:26:27.922Z,99.70
2018-12-16T06:28:57.735Z,99.50
2018-12-16T06:31:26.185Z,99.60
2018-12-16T06:33:54.555Z,99.80
2018-12-16T06:36:23.682Z,99.80
2018-12-16T06:38:54.795Z,99.80
2018-12-16T06:41:27.165Z,99.80
2018-12-16T06:44:01.525Z,99.80
2018-12-16T06:46:32.214Z,99.80
2018-12-16T06:49:06.392Z,99.80
2018-12-16T06:51:39.065Z,99.80
2018-12-16T06:54:07.447Z,99.80
2018-12-16T06:56:35.922Z,99.80
2018-12-16T06:59:04.318Z,99.80
2018-12-16T07:01:34.072Z,99.80
2018-12-16T07:04:02.471Z,99.80
2018-12-16T07:06:31.864Z,99.80
2018-12-16T07:09:00.227Z,99.80
2018-12-16T07:11:28.709Z,99.80
2018-12-16T07:13:57.262Z,99.80
2018-12-16T07:16:28.351Z,99.80
2018-12-16T07:18:56.827Z,99.80
2018-12-16T07:21:34.652Z,99.80
2018-12-16T07:24:09.367Z,99.80
2018-12-16T07:26:41.553Z,99.80
2018-12-16T07:29:14.073Z,99.80
2018-12-16T07:31:44.169Z,99.80
2018-12-16T07:34:12.657Z,99.80
2018-12-16T07:36:43.430Z,99.80
2018-12-16T07:39:11.873Z,99.80
2018-12-16T07:41:40.415Z,99.80
2018-12-16T07:44:08.888Z,99.80
2018-12-16T07:46:37.326Z,99.80
2018-12-16T07:49:05.826Z,99.80
2018-12-16T07:51:34.289Z,99.80
2018-12-16T07:54:05.172Z,99.80
2018-12-16T07:56:33.621Z,99.80
2018-12-16T07:59:02.238Z,99.80
2018-12-16T08:01:30.715Z,99.80
2018-12-16T08:04:00.101Z,99.80
2018-12-16T08:06:28.665Z,99.80
2018-12-16T08:08:57.161Z,99.80
2018-12-16T08:11:27.442Z,99.80
2018-12-16T08:13:56.667Z,99.80
2018-12-16T08:16:25.095Z,99.80
2018-12-16T08:18:53.573Z,99.80
2018-12-16T08:21:23.108Z,99.80
2018-12-16T08:23:51.818Z,99.80
2018-12-16T08:26:20.290Z,99.80
2018-12-16T08:28:48.803Z,99.80
2018-12-16T08:31:18.130Z,99.80
2018-12-16T08:33:46.552Z,99.80
2018-12-16T08:36:15.103Z,99.80
2018-12-16T08:38:43.537Z,99.80
2018-12-16T08:41:12.245Z,99.80
2018-12-16T08:43:40.671Z,99.80
2018-12-16T08:46:09.059Z,99.80
2018-12-16T08:48:37.559Z,99.80
2018-12-16T08:51:06.021Z,99.80
2018-12-16T08:53:34.355Z,99.80
2018-12-16T08:56:02.779Z,99.80
2018-12-16T08:58:31.132Z,99.80
2018-12-16T09:01:02.706Z,99.80
2018-12-16T09:03:31.239Z,99.80
2018-12-16T09:05:59.684Z,99.80
2018-12-16T09:08:28.264Z,99.80
2018-12-16T09:10:57.477Z,99.80
2018-12-16T09:13:25.958Z,99.80
2018-12-16T09:15:54.629Z,99.80
2018-12-16T09:18:23.020Z,99.80
2018-12-16T09:20:51.434Z,98.60
2018-12-16T09:23:20.420Z,98.70
2018-12-16T09:25:48.791Z,98.30
2018-12-16T09:28:17.164Z,98.20
2018-12-16T09:30:45.549Z,98.20
2018-12-16T09:33:13.952Z,98.80
2018-12-16T09:35:42.360Z,98.80
2018-12-16T09:38:10.789Z,99.10
2018-12-16T09:40:39.162Z,98.60
2018-12-16T09:43:07.550Z,98.60
2018-12-16T09:45:35.907Z,98.90
2018-12-16T09:48:04.358Z,98.30
2018-12-16T09:50:32.825Z,97.60
2018-12-16T09:53:01.255Z,96.70
2018-12-16T09:55:29.726Z,97.30
2018-12-16T09:57:58.103Z,96.60
2018-12-16T10:00:26.489Z,96.80
2018-12-16T10:02:54.842Z,96.40
2018-12-16T10:05:23.278Z,96.90
2018-12-16T10:07:51.738Z,97.10
2018-12-16T10:10:20.095Z,96.70
2018-12-16T10:12:48.522Z,97.00
2018-12-16T10:15:17.259Z,97.20
2018-12-16T10:17:45.698Z,97.50
2018-12-16T10:20:14.273Z,96.80
2018-12-16T10:22:42.636Z,97.00
2018-12-16T10:25:11.077Z,96.60
2018-12-16T10:27:39.604Z,96.10
2018-12-16T10:30:09.064Z,95.00
2018-12-16T10:32:37.435Z,95.00
2018-12-16T10:35:06.232Z,95.40
2018-12-16T10:37:34.641Z,94.90
2018-12-16T10:40:03.205Z,95.20
2018-12-16T10:42:31.719Z,95.40
2018-12-16T10:45:00.134Z,94.90
2018-12-16T10:47:28.570Z,95.60
2018-12-16T10:49:56.963Z,95.40
2018-12-16T10:52:25.345Z,95.00
2018-12-16T10:54:58.406Z,95.20
2018-12-16T10:57:24.245Z,94.30
2018-12-16T10:59:52.757Z,95.30
2018-12-16T11:02:21.127Z,95.10
2018-12-16T11:04:49.506Z,96.10
2018-12-16T11:07:17.871Z,95.40
2018-12-16T11:09:46.466Z,95.10
2018-12-16T11:12:15.394Z,95.80
2018-12-16T11:14:43.804Z,95.40
2018-12-16T11:17:12.604Z,94.20
2018-12-16T11:19:43.022Z,94.40
2018-12-16T11:22:13.211Z,94.40
2018-12-16T11:24:43.216Z,94.60
2018-12-16T11:27:11.822Z,94.90
2018-12-16T11:29:40.482Z,95.60
2018-12-16T11:32:08.936Z,95.90
2018-12-16T11:34:37.291Z,97.10
2018-12-16T11:37:05.698Z,97.70
2018-12-16T11:39:34.203Z,97.90
2018-12-16T11:42:02.751Z,97.80
2018-12-16T11:44:31.136Z,98.50
2018-12-16T11:46:59.561Z,98.40
2018-12-16T11:49:27.958Z,98.00
2018-12-16T11:51:56.398Z,97.90
2018-12-16T11:54:24.745Z,97.60
2018-12-16T11:56:53.165Z,97.30
2018-12-16T11:59:21.622Z,97.90
2018-12-16T12:01:49.954Z,97.90
2018-12-16T12:04:18.406Z,97.40
2018-12-16T12:06:46.827Z,97.60
2018-12-16T12:09:15.357Z,97.80
2018-12-16T12:11:43.847Z,97.90
2018-12-16T12:14:12.223Z,97.90
2018-12-16T12:16:40.764Z,98.10
2018-12-16T12:19:09.150Z,97.90
2018-12-16T12:21:37.998Z,97.70
2018-12-16T12:24:06.423Z,98.40
2018-12-16T12:26:34.829Z,98.90
2018-12-16T12:29:03.395Z,99.20
2018-12-16T12:31:31.887Z,99.60
2018-12-16T12:34:00.395Z,99.70
2018-12-16T12:36:29.777Z,99.70
2018-12-16T12:38:58.168Z,99.80
2018-12-16T12:41:26.665Z,99.80
2018-12-16T12:43:55.072Z,99.80
2018-12-16T12:46:25.093Z,99.80
2018-12-16T12:48:53.635Z,99.80
2018-12-16T12:51:22.042Z,99.80
2018-12-16T12:53:50.604Z,99.80
2018-12-16T12:56:18.992Z,99.80
2018-12-16T12:58:47.365Z,99.80
2018-12-16T13:01:15.766Z,99.80
2018-12-16T13:03:44.186Z,99.80
2018-12-16T13:06:17.021Z,99.80
2018-12-16T13:08:48.182Z,99.80
2018-12-16T13:11:18.362Z,99.80
2018-12-16T13:13:48.373Z,99.80
2018-12-16T13:16:18.554Z,99.80
2018-12-16T13:18:48.654Z,99.80
2018-12-16T13:21:18.564Z,99.80
2018-12-16T13:23:48.193Z,99.80
2018-12-16T13:26:18.518Z,99.80
2018-12-16T13:28:47.109Z,99.80
2018-12-16T13:31:15.611Z,99.80
2018-12-16T13:33:44.062Z,99.80
2018-12-16T13:36:12.546Z,99.80
2018-12-16T13:38:40.971Z,99.80
2018-12-16T13:41:09.431Z,99.80
2018-12-16T13:43:37.925Z,99.80
2018-12-16T13:46:06.328Z,99.80
2018-12-16T13:48:34.723Z,99.80
2018-12-16T13:51:03.161Z,99.80
2018-12-16T13:53:31.614Z,99.80
2018-12-16T13:56:02.151Z,99.80
2018-12-16T13:58:31.038Z,99.80
2018-12-16T14:00:59.495Z,99.80
2018-12-16T14:03:28.031Z,99.80
2018-12-16T14:05:56.845Z,99.80
2018-12-16T14:08:25.517Z,99.80
2018-12-16T14:10:53.956Z,99.80
2018-12-16T14:13:22.414Z,99.80
2018-12-16T14:15:52.457Z,99.80
2018-12-16T14:18:21.228Z,99.80
2018-12-16T14:20:49.694Z,99.80
2018-12-16T14:23:18.123Z,99.80
2018-12-16T14:25:48.205Z,99.80
2018-12-16T14:28:16.831Z,99.80
2018-12-16T14:30:46.488Z,99.80
2018-12-16T14:33:14.946Z,99.80
2018-12-16T14:35:44.921Z,99.80
2018-12-16T14:38:13.845Z,99.80
2018-12-16T14:40:42.971Z,99.80
2018-12-16T14:43:11.435Z,99.80
2018-12-16T14:45:39.914Z,99.80
2018-12-16T14:48:08.369Z,99.80
2018-12-16T14:50:36.756Z,99.80
2018-12-16T14:53:05.206Z,99.80
2018-12-16T14:55:33.623Z,99.80
2018-12-16T14:58:02.113Z,99.80
2018-12-16T15:00:30.601Z,99.80
2018-12-16T15:02:59.039Z,99.80
2018-12-16T15:05:35.137Z,99.80
2018-12-16T15:08:04.743Z,99.80
2018-12-16T15:10:33.152Z,99.80
2018-12-16T15:13:01.631Z,99.80
2018-12-16T15:15:30.022Z,99.80
2018-12-16T15:17:58.556Z,99.80
2018-12-16T15:20:27.426Z,99.80
2018-12-16T15:22:56.763Z,99.80
2018-12-16T15:25:25.291Z,99.80
2018-12-16T15:27:54.826Z,99.80
2018-12-16T15:30:23.649Z,99.80
2018-12-16T15:32:52.292Z,99.80
2018-12-16T15:35:21.659Z,99.80
2018-12-16T15:37:52.244Z,99.80
2018-12-16T15:40:21.949Z,99.80
2018-12-16T15:42:51.395Z,99.80
2018-12-16T15:45:19.969Z,99.80
2018-12-16T15:47:48.431Z,99.80
2018-12-16T15:50:16.995Z,99.80
2018-12-16T15:52:45.423Z,99.80
2018-12-16T15:55:13.922Z,99.80
2018-12-16T15:57:42.438Z,99.80
2018-12-16T16:00:11.619Z,99.80
2018-12-16T16:02:40.112Z,99.80
2018-12-16T16:05:09.121Z,99.80
2018-12-16T16:07:37.847Z,99.80
2018-12-16T16:10:08.060Z,99.80
2018-12-16T16:12:36.518Z,99.80
2018-12-16T16:15:05.453Z,99.80
2018-12-16T16:17:33.952Z,99.80
2018-12-16T16:20:02.739Z,99.80
2018-12-16T16:22:31.558Z,99.80
2018-12-16T16:24:59.994Z,99.80
2018-12-16T16:27:29.060Z,99.80
2018-12-16T16:29:57.583Z,99.80
2018-12-16T16:32:26.200Z,99.80
2018-12-16T16:34:54.768Z,99.80
2018-12-16T16:37:23.263Z,99.80
2018-12-16T16:39:51.754Z,99.80
2018-12-16T16:42:20.599Z,99.80
2018-12-16T16:44:49.275Z,99.80
2018-12-16T16:47:18.806Z,99.80
2018-12-16T16:49:53.897Z,99.80
2018-12-16T16:52:22.652Z,99.80
2018-12-16T16:54:52.314Z,99.80
2018-12-16T16:57:20.886Z,99.80
2018-12-16T16:59:49.947Z,99.80
2018-12-16T17:02:18.812Z,99.80
2018-12-16T17:04:47.347Z,99.80
2018-12-16T17:07:16.016Z,99.80
2018-12-16T17:09:44.446Z,99.80
2018-12-16T17:12:13.102Z,99.80
2018-12-16T17:14:41.702Z,99.80
2018-12-16T17:17:10.547Z,99.80
2018-12-16T17:19:39.017Z,99.80
2018-12-16T17:22:07.791Z,99.80
2018-12-16T17:24:37.217Z,99.80
2018-12-16T17:27:05.763Z,99.80
2018-12-16T17:29:34.351Z,99.80
2018-12-16T17:32:03.210Z,99.80
2018-12-16T17:34:31.692Z,99.80
2018-12-16T17:37:00.166Z,99.80
2018-12-16T17:39:28.674Z,99.80
2018-12-16T17:41:57.309Z,99.80
2018-12-16T17:44:25.754Z,99.80
2018-12-16T17:46:54.306Z,99.80
2018-12-16T17:49:23.410Z,99.80
2018-12-16T17:51:51.891Z,99.80
2018-12-16T17:54:20.331Z,99.80
2018-12-16T17:56:48.755Z,99.80
2018-12-16T17:59:17.980Z,99.80
2018-12-16T18:01:47.859Z,99.80
2018-12-16T18:04:16.425Z,99.80
2018-12-16T18:06:45.054Z,99.80
2018-12-16T18:09:13.623Z,99.80
2018-12-16T18:11:42.093Z,99.80
2018-12-16T18:14:10.675Z,99.80
2018-12-16T18:16:39.199Z,99.80
2018-12-16T18:19:08.432Z,99.80
2018-12-16T18:21:37.246Z,99.80
2018-12-16T18:24:05.625Z,99.80
2018-12-16T18:26:34.534Z,99.80
2018-12-16T18:29:04.469Z,99.80
2018-12-16T18:31:34.506Z,99.80
2018-12-16T18:34:03.179Z,99.80
2018-12-16T18:36:31.619Z,99.80
2018-12-16T18:39:00.039Z,99.80
2018-12-16T18:41:28.907Z,99.80
2018-12-16T18:43:57.730Z,99.80
2018-12-16T18:46:26.300Z,99.80
2018-12-16T18:48:54.794Z,99.80
2018-12-16T18:51:23.338Z,99.80
2018-12-16T18:53:51.819Z,99.80
2018-12-16T18:56:20.396Z,99.80
2018-12-16T18:58:49.799Z,99.80
2018-12-16T19:01:18.288Z,99.80
2018-12-16T19:03:46.785Z,99.80
2018-12-16T19:06:15.430Z,99.80
2018-12-16T19:08:43.859Z,99.80
2018-12-16T19:11:13.827Z,99.80
2018-12-16T19:13:43.319Z,99.80
2018-12-16T19:16:11.842Z,99.80
2018-12-16T19:18:40.560Z,99.80
2018-12-16T19:21:09.990Z,99.80
2018-12-16T19:23:38.614Z,99.80
2018-12-16T19:26:07.026Z,99.80
2018-12-16T19:28:35.914Z,99.80
2018-12-16T19:31:04.435Z,99.80
2018-12-16T19:33:33.551Z,99.80
2018-12-16T19:36:02.528Z,99.80
2018-12-16T19:38:31.622Z,99.80
2018-12-16T19:41:00.559Z,99.80
2018-12-16T19:43:29.428Z,99.80
2018-12-16T19:45:58.780Z,99.80
2018-12-16T19:48:28.165Z,99.80
2018-12-16T19:50:57.156Z,99.80
2018-12-16T19:53:25.630Z,99.80
2018-12-16T19:55:54.192Z,99.80
2018-12-16T19:58:22.757Z,99.80
2018-12-16T20:00:51.541Z,99.80
2018-12-16T20:03:20.060Z,99.80
2018-12-16T20:05:53.730Z,99.80
2018-12-16T20:08:22.370Z,99.80
2018-12-16T20:10:50.847Z,99.80
2018-12-16T20:13:19.324Z,99.80
2018-12-16T20:15:47.984Z,99.80
2018-12-16T20:18:16.382Z,99.80
2018-12-16T20:20:44.852Z,99.80
2018-12-16T20:23:13.275Z,99.80
2018-12-16T20:25:43.191Z,99.80
2018-12-16T20:28:11.818Z,99.80
2018-12-16T20:30:40.361Z,99.80
2018-12-16T20:33:09.112Z,99.80
2018-12-16T20:35:37.704Z,99.80
2018-12-16T20:38:06.333Z,99.80
2018-12-16T20:40:35.025Z,99.80
2018-12-16T20:43:03.737Z,99.80
2018-12-16T20:45:32.188Z,99.80
2018-12-16T20:48:00.711Z,99.80
2018-12-16T20:50:29.200Z,99.80
2018-12-16T20:52:57.714Z,99.80
2018-12-16T20:55:27.217Z,99.80
2018-12-16T20:57:55.674Z,99.80
2018-12-16T21:00:24.275Z,99.80
2018-12-16T21:02:52.830Z,99.80
2018-12-16T21:05:21.410Z,99.80
2018-12-16T21:07:49.946Z,99.80
2018-12-16T21:10:18.395Z,99.80
2018-12-16T21:12:51.976Z,99.80
2018-12-16T21:15:26.021Z,99.80
2018-12-16T21:17:59.784Z,99.80
2018-12-16T21:20:28.226Z,99.80
2018-12-16T21:22:57.637Z,99.80
2018-12-16T21:25:26.097Z,99.80
2018-12-16T21:27:55.067Z,99.80
2018-12-16T21:30:23.501Z,99.80
2018-12-16T21:32:51.978Z,99.80
2018-12-16T21:35:20.429Z,99.80
2018-12-16T21:37:49.467Z,99.80
2018-12-16T21:40:17.952Z,99.80
2018-12-16T21:42:46.341Z,99.80
2018-12-16T21:45:14.742Z,99.80
2018-12-16T21:47:43.193Z,99.80
2018-12-16T21:50:12.634Z,99.80
2018-12-16T21:52:41.630Z,99.80
2018-12-16T21:55:10.235Z,99.80
2018-12-16T21:57:38.963Z,99.80
2018-12-16T22:00:09.855Z,99.80
2018-12-16T22:02:38.511Z,99.80
2018-12-16T22:05:10.463Z,99.80
2018-12-16T22:07:39.692Z,99.80
2018-12-16T22:10:08.326Z,99.80
2018-12-16T22:12:37.244Z,99.80
2018-12-16T22:15:06.275Z,99.80
2018-12-16T22:17:34.688Z,99.80
2018-12-16T22:20:03.055Z,99.80
2018-12-16T22:22:31.653Z,99.80
2018-12-16T22:25:00.063Z,99.80
2018-12-16T22:27:28.673Z,99.80
2018-12-16T22:29:57.072Z,99.80
2018-12-16T22:32:25.894Z,99.80
2018-12-16T22:34:54.542Z,99.80
2018-12-16T22:37:23.248Z,99.80
2018-12-16T22:39:52.222Z,99.80
2018-12-16T22:42:21.019Z,99.80
2018-12-16T22:44:50.088Z,99.80
2018-12-16T22:47:19.372Z,99.80
2018-12-16T22:49:48.202Z,99.80
2018-12-16T22:52:17.503Z,99.80
2018-12-16T22:54:46.208Z,99.80
2018-12-16T22:57:15.515Z,99.80
2018-12-16T22:59:44.065Z,99.80
2018-12-16T23:02:12.531Z,99.80
2018-12-16T23:04:41.169Z,99.80
2018-12-16T23:07:09.886Z,99.80
2018-12-16T23:09:38.448Z,99.80
2018-12-16T23:12:06.884Z,99.80
2018-12-16T23:14:35.546Z,99.80
2018-12-16T23:17:04.867Z,99.80
2018-12-16T23:19:34.185Z,99.80
2018-12-16T23:22:02.729Z,99.80
2018-12-16T23:24:31.503Z,99.80
2018-12-16T23:26:59.919Z,99.80
2018-12-16T23:29:28.373Z,99.80
2018-12-16T23:31:56.893Z,99.80
2018-12-16T23:34:26.087Z,99.80
2018-12-16T23:36:54.490Z,99.80
2018-12-16T23:39:23.670Z,99.80
2018-12-16T23:41:52.075Z,99.80
2018-12-16T23:44:20.555Z,99.80
2018-12-16T23:46:49.078Z,99.80
2018-12-16T23:49:17.432Z,99.80
2018-12-16T23:51:45.835Z,99.80
2018-12-16T23:54:14.267Z,99.80
2018-12-16T23:56:42.621Z,99.80
2018-12-16T23:59:10.986Z,99.80
